sensor_id;sensor_type;location;lat;lon;timestamp;P1;durP1;ratioP1;P2;durP2;ratioP2
18520;SDS011;9390;51.244;6.982;2023-04-06T00:01:48;24.45;;;10.93;;
18520;SDS011;9390;51.244;6.982;2023-04-06T00:04:20;25.50;;;11.77;;
18520;SDS011;9390;51.244;6.982;2023-04-06T00:06:51;23.70;;;11.90;;
18520;SDS011;9390;51.244;6.982;2023-04-06T00:09:22;22.38;;;10.80;;
18520;SDS011;9390;51.244;6.982;2023-04-06T00:11:55;25.38;;;11.13;;
18520;SDS011;9390;51.244;6.982;2023-04-06T00:14:27;29.08;;;12.02;;
18520;SDS011;9390;51.244;6.982;2023-04-06T00:16:59;24.85;;;12.35;;
18520;SDS011;9390;51.244;6.982;2023-04-06T00:19:30;23.70;;;11.68;;
18520;SDS011;9390;51.244;6.982;2023-04-06T00:22:01;25.83;;;11.50;;
18520;SDS011;9390;51.244;6.982;2023-04-06T00:24:33;28.50;;;11.15;;
18520;SDS011;9390;51.244;6.982;2023-04-06T00:27:06;29.50;;;11.55;;
18520;SDS011;9390;51.244;6.982;2023-04-06T00:29:37;22.60;;;11.57;;
18520;SDS011;9390;51.244;6.982;2023-04-06T00:32:09;29.95;;;12.30;;
18520;SDS011;9390;51.244;6.982;2023-04-06T00:34:41;25.35;;;10.75;;
18520;SDS011;9390;51.244;6.982;2023-04-06T00:37:12;21.48;;;11.65;;
18520;SDS011;9390;51.244;6.982;2023-04-06T00:39:43;21.33;;;11.15;;
18520;SDS011;9390;51.244;6.982;2023-04-06T00:42:16;25.48;;;11.98;;
18520;SDS011;9390;51.244;6.982;2023-04-06T00:44:55;20.17;;;10.65;;
18520;SDS011;9390;51.244;6.982;2023-04-06T00:47:28;23.45;;;11.45;;
18520;SDS011;9390;51.244;6.982;2023-04-06T00:49:59;25.85;;;10.85;;
18520;SDS011;9390;51.244;6.982;2023-04-06T00:52:31;20.58;;;10.60;;
18520;SDS011;9390;51.244;6.982;2023-04-06T00:55:02;20.15;;;11.15;;
18520;SDS011;9390;51.244;6.982;2023-04-06T00:57:35;31.35;;;11.55;;
18520;SDS011;9390;51.244;6.982;2023-04-06T01:00:07;20.77;;;11.15;;
18520;SDS011;9390;51.244;6.982;2023-04-06T01:02:39;19.50;;;11.15;;
18520;SDS011;9390;51.244;6.982;2023-04-06T01:05:10;22.45;;;12.00;;
18520;SDS011;9390;51.244;6.982;2023-04-06T01:07:42;24.48;;;12.70;;
18520;SDS011;9390;51.244;6.982;2023-04-06T01:10:22;23.65;;;10.90;;
18520;SDS011;9390;51.244;6.982;2023-04-06T01:12:55;22.45;;;10.80;;
18520;SDS011;9390;51.244;6.982;2023-04-06T01:15:26;22.40;;;10.73;;
18520;SDS011;9390;51.244;6.982;2023-04-06T01:17:58;24.60;;;11.50;;
18520;SDS011;9390;51.244;6.982;2023-04-06T01:20:29;22.98;;;11.68;;
18520;SDS011;9390;51.244;6.982;2023-04-06T01:23:02;23.25;;;11.35;;
18520;SDS011;9390;51.244;6.982;2023-04-06T01:25:33;21.52;;;10.23;;
18520;SDS011;9390;51.244;6.982;2023-04-06T01:28:05;22.52;;;10.88;;
18520;SDS011;9390;51.244;6.982;2023-04-06T01:30:36;24.25;;;11.43;;
18520;SDS011;9390;51.244;6.982;2023-04-06T01:33:08;23.05;;;10.32;;
18520;SDS011;9390;51.244;6.982;2023-04-06T01:35:39;23.42;;;11.02;;
18520;SDS011;9390;51.244;6.982;2023-04-06T01:38:12;20.77;;;10.50;;
18520;SDS011;9390;51.244;6.982;2023-04-06T01:40:43;22.85;;;11.25;;
18520;SDS011;9390;51.244;6.982;2023-04-06T01:43:15;26.25;;;10.60;;
18520;SDS011;9390;51.244;6.982;2023-04-06T01:45:46;20.73;;;11.20;;
18520;SDS011;9390;51.244;6.982;2023-04-06T01:48:18;21.25;;;10.60;;
18520;SDS011;9390;51.244;6.982;2023-04-06T01:50:49;23.67;;;11.05;;
18520;SDS011;9390;51.244;6.982;2023-04-06T01:53:22;25.92;;;10.70;;
18520;SDS011;9390;51.244;6.982;2023-04-06T01:55:53;25.95;;;10.93;;
18520;SDS011;9390;51.244;6.982;2023-04-06T01:58:25;21.90;;;9.93;;
18520;SDS011;9390;51.244;6.982;2023-04-06T02:00:56;21.35;;;11.45;;
18520;SDS011;9390;51.244;6.982;2023-04-06T02:03:27;27.17;;;11.93;;
18520;SDS011;9390;51.244;6.982;2023-04-06T02:05:59;19.05;;;10.00;;
18520;SDS011;9390;51.244;6.982;2023-04-06T02:08:31;19.30;;;10.13;;
18520;SDS011;9390;51.244;6.982;2023-04-06T02:11:03;19.60;;;9.55;;
18520;SDS011;9390;51.244;6.982;2023-04-06T02:13:35;25.75;;;10.50;;
18520;SDS011;9390;51.244;6.982;2023-04-06T02:16:06;19.10;;;10.13;;
18520;SDS011;9390;51.244;6.982;2023-04-06T02:18:37;19.60;;;9.88;;
18520;SDS011;9390;51.244;6.982;2023-04-06T02:21:09;19.83;;;10.05;;
18520;SDS011;9390;51.244;6.982;2023-04-06T02:23:42;20.23;;;9.82;;
18520;SDS011;9390;51.244;6.982;2023-04-06T02:26:13;19.13;;;10.30;;
18520;SDS011;9390;51.244;6.982;2023-04-06T02:28:45;20.58;;;9.93;;
18520;SDS011;9390;51.244;6.982;2023-04-06T02:31:16;22.17;;;10.63;;
18520;SDS011;9390;51.244;6.982;2023-04-06T02:33:47;18.45;;;9.68;;
18520;SDS011;9390;51.244;6.982;2023-04-06T02:36:19;17.48;;;8.55;;
18520;SDS011;9390;51.244;6.982;2023-04-06T02:38:51;19.17;;;9.30;;
18520;SDS011;9390;51.244;6.982;2023-04-06T02:41:23;19.77;;;9.30;;
18520;SDS011;9390;51.244;6.982;2023-04-06T02:43:55;19.35;;;9.90;;
18520;SDS011;9390;51.244;6.982;2023-04-06T02:46:26;19.65;;;9.10;;
18520;SDS011;9390;51.244;6.982;2023-04-06T02:48:57;19.48;;;9.60;;
18520;SDS011;9390;51.244;6.982;2023-04-06T02:51:30;18.75;;;9.13;;
18520;SDS011;9390;51.244;6.982;2023-04-06T02:54:03;18.00;;;8.93;;
18520;SDS011;9390;51.244;6.982;2023-04-06T02:59:06;18.98;;;9.38;;
18520;SDS011;9390;51.244;6.982;2023-04-06T03:01:37;16.30;;;8.45;;
18520;SDS011;9390;51.244;6.982;2023-04-06T03:04:08;20.40;;;8.82;;
18520;SDS011;9390;51.244;6.982;2023-04-06T03:06:40;25.05;;;9.75;;
18520;SDS011;9390;51.244;6.982;2023-04-06T03:09:13;21.70;;;8.95;;
18520;SDS011;9390;51.244;6.982;2023-04-06T03:11:45;20.63;;;9.35;;
18520;SDS011;9390;51.244;6.982;2023-04-06T03:14:16;18.80;;;8.88;;
18520;SDS011;9390;51.244;6.982;2023-04-06T03:16:51;19.25;;;9.30;;
18520;SDS011;9390;51.244;6.982;2023-04-06T03:19:22;22.23;;;9.65;;
18520;SDS011;9390;51.244;6.982;2023-04-06T03:21:54;19.27;;;9.15;;
18520;SDS011;9390;51.244;6.982;2023-04-06T03:24:26;17.85;;;9.35;;
18520;SDS011;9390;51.244;6.982;2023-04-06T03:26:58;16.65;;;9.32;;
18520;SDS011;9390;51.244;6.982;2023-04-06T03:29:30;21.02;;;9.25;;
18520;SDS011;9390;51.244;6.982;2023-04-06T03:32:01;17.65;;;9.15;;
18520;SDS011;9390;51.244;6.982;2023-04-06T03:34:33;21.40;;;9.13;;
18520;SDS011;9390;51.244;6.982;2023-04-06T03:37:04;16.27;;;9.18;;
18520;SDS011;9390;51.244;6.982;2023-04-06T03:39:37;19.88;;;9.30;;
18520;SDS011;9390;51.244;6.982;2023-04-06T03:42:08;18.90;;;8.23;;
18520;SDS011;9390;51.244;6.982;2023-04-06T03:44:39;20.20;;;9.75;;
18520;SDS011;9390;51.244;6.982;2023-04-06T03:47:11;22.85;;;8.98;;
18520;SDS011;9390;51.244;6.982;2023-04-06T03:49:42;19.42;;;9.18;;
18520;SDS011;9390;51.244;6.982;2023-04-06T03:52:14;23.20;;;9.68;;
18520;SDS011;9390;51.244;6.982;2023-04-06T03:54:46;17.77;;;9.30;;
18520;SDS011;9390;51.244;6.982;2023-04-06T03:57:18;17.98;;;8.85;;
18520;SDS011;9390;51.244;6.982;2023-04-06T03:59:49;20.25;;;9.32;;
18520;SDS011;9390;51.244;6.982;2023-04-06T04:02:20;18.95;;;9.35;;
18520;SDS011;9390;51.244;6.982;2023-04-06T04:04:52;19.13;;;9.82;;
18520;SDS011;9390;51.244;6.982;2023-04-06T04:07:23;16.50;;;8.15;;
18520;SDS011;9390;51.244;6.982;2023-04-06T04:09:56;23.20;;;10.20;;
18520;SDS011;9390;51.244;6.982;2023-04-06T04:12:27;24.75;;;10.30;;
18520;SDS011;9390;51.244;6.982;2023-04-06T04:14:59;20.00;;;9.55;;
18520;SDS011;9390;51.244;6.982;2023-04-06T04:17:30;21.67;;;8.80;;
18520;SDS011;9390;51.244;6.982;2023-04-06T04:20:01;17.60;;;8.75;;
18520;SDS011;9390;51.244;6.982;2023-04-06T04:22:33;19.27;;;8.55;;
18520;SDS011;9390;51.244;6.982;2023-04-06T04:25:06;19.02;;;9.48;;
18520;SDS011;9390;51.244;6.982;2023-04-06T04:27:38;21.10;;;9.10;;
18520;SDS011;9390;51.244;6.982;2023-04-06T04:30:09;16.60;;;8.55;;
18520;SDS011;9390;51.244;6.982;2023-04-06T04:32:41;20.08;;;8.95;;
18520;SDS011;9390;51.244;6.982;2023-04-06T04:35:12;17.98;;;9.07;;
18520;SDS011;9390;51.244;6.982;2023-04-06T04:37:44;21.35;;;10.23;;
18520;SDS011;9390;51.244;6.982;2023-04-06T04:40:17;17.95;;;8.85;;
18520;SDS011;9390;51.244;6.982;2023-04-06T04:42:49;19.35;;;8.55;;
18520;SDS011;9390;51.244;6.982;2023-04-06T04:45:21;18.20;;;8.63;;
18520;SDS011;9390;51.244;6.982;2023-04-06T04:47:53;17.13;;;8.75;;
18520;SDS011;9390;51.244;6.982;2023-04-06T04:50:24;19.45;;;8.88;;
18520;SDS011;9390;51.244;6.982;2023-04-06T04:52:56;18.58;;;9.20;;
18520;SDS011;9390;51.244;6.982;2023-04-06T04:55:29;20.88;;;9.30;;
18520;SDS011;9390;51.244;6.982;2023-04-06T04:58:01;19.52;;;9.30;;
18520;SDS011;9390;51.244;6.982;2023-04-06T05:00:33;21.07;;;10.37;;
18520;SDS011;9390;51.244;6.982;2023-04-06T05:03:04;19.98;;;8.27;;
18520;SDS011;9390;51.244;6.982;2023-04-06T05:05:36;18.10;;;9.38;;
18520;SDS011;9390;51.244;6.982;2023-04-06T05:08:08;19.40;;;9.90;;
18520;SDS011;9390;51.244;6.982;2023-04-06T05:10:41;18.98;;;9.23;;
18520;SDS011;9390;51.244;6.982;2023-04-06T05:13:12;19.45;;;9.32;;
18520;SDS011;9390;51.244;6.982;2023-04-06T05:15:44;16.55;;;8.65;;
18520;SDS011;9390;51.244;6.982;2023-04-06T05:18:16;19.40;;;8.73;;
18520;SDS011;9390;51.244;6.982;2023-04-06T05:20:47;20.88;;;9.48;;
18520;SDS011;9390;51.244;6.982;2023-04-06T05:23:19;25.20;;;8.90;;
18520;SDS011;9390;51.244;6.982;2023-04-06T05:25:52;25.60;;;8.52;;
18520;SDS011;9390;51.244;6.982;2023-04-06T05:28:24;18.17;;;8.57;;
18520;SDS011;9390;51.244;6.982;2023-04-06T05:30:56;19.27;;;7.97;;
18520;SDS011;9390;51.244;6.982;2023-04-06T05:33:28;14.85;;;8.32;;
18520;SDS011;9390;51.244;6.982;2023-04-06T05:35:59;19.05;;;8.95;;
18520;SDS011;9390;51.244;6.982;2023-04-06T05:38:31;16.40;;;8.38;;
18520;SDS011;9390;51.244;6.982;2023-04-06T05:41:05;14.52;;;7.60;;
18520;SDS011;9390;51.244;6.982;2023-04-06T05:43:36;18.77;;;8.38;;
18520;SDS011;9390;51.244;6.982;2023-04-06T05:46:08;15.60;;;7.75;;
18520;SDS011;9390;51.244;6.982;2023-04-06T05:48:39;17.48;;;8.57;;
18520;SDS011;9390;51.244;6.982;2023-04-06T05:51:11;18.33;;;7.72;;
18520;SDS011;9390;51.244;6.982;2023-04-06T05:53:42;15.45;;;7.30;;
18520;SDS011;9390;51.244;6.982;2023-04-06T05:56:15;18.45;;;8.75;;
18520;SDS011;9390;51.244;6.982;2023-04-06T05:58:47;17.30;;;8.30;;
18520;SDS011;9390;51.244;6.982;2023-04-06T06:01:18;16.13;;;8.05;;
18520;SDS011;9390;51.244;6.982;2023-04-06T06:03:50;22.58;;;8.23;;
18520;SDS011;9390;51.244;6.982;2023-04-06T06:06:22;15.43;;;8.07;;
18520;SDS011;9390;51.244;6.982;2023-04-06T06:08:53;14.52;;;7.85;;
18520;SDS011;9390;51.244;6.982;2023-04-06T06:11:26;16.30;;;7.75;;
18520;SDS011;9390;51.244;6.982;2023-04-06T06:13:58;17.77;;;7.90;;
18520;SDS011;9390;51.244;6.982;2023-04-06T06:16:30;13.63;;;7.03;;
18520;SDS011;9390;51.244;6.982;2023-04-06T06:19:01;17.70;;;8.48;;
18520;SDS011;9390;51.244;6.982;2023-04-06T06:21:33;14.43;;;7.50;;
18520;SDS011;9390;51.244;6.982;2023-04-06T06:24:04;14.63;;;7.43;;
18520;SDS011;9390;51.244;6.982;2023-04-06T06:26:38;14.87;;;7.47;;
18520;SDS011;9390;51.244;6.982;2023-04-06T06:29:09;16.90;;;7.28;;
18520;SDS011;9390;51.244;6.982;2023-04-06T06:31:41;16.05;;;7.18;;
18520;SDS011;9390;51.244;6.982;2023-04-06T06:34:12;16.23;;;7.28;;
18520;SDS011;9390;51.244;6.982;2023-04-06T06:36:44;15.23;;;6.40;;
18520;SDS011;9390;51.244;6.982;2023-04-06T06:39:15;14.30;;;7.30;;
18520;SDS011;9390;51.244;6.982;2023-04-06T06:41:48;15.52;;;6.90;;
18520;SDS011;9390;51.244;6.982;2023-04-06T06:44:20;24.30;;;10.88;;
18520;SDS011;9390;51.244;6.982;2023-04-06T06:46:52;30.92;;;14.60;;
18520;SDS011;9390;51.244;6.982;2023-04-06T06:49:23;19.25;;;8.93;;
18520;SDS011;9390;51.244;6.982;2023-04-06T06:51:55;13.52;;;6.35;;
18520;SDS011;9390;51.244;6.982;2023-04-06T06:54:27;15.40;;;6.60;;
18520;SDS011;9390;51.244;6.982;2023-04-06T06:56:59;16.30;;;7.25;;
18520;SDS011;9390;51.244;6.982;2023-04-06T06:59:31;12.13;;;6.80;;
18520;SDS011;9390;51.244;6.982;2023-04-06T07:02:03;12.02;;;6.13;;
18520;SDS011;9390;51.244;6.982;2023-04-06T07:04:34;12.40;;;6.93;;
18520;SDS011;9390;51.244;6.982;2023-04-06T07:07:06;18.67;;;7.18;;
18520;SDS011;9390;51.244;6.982;2023-04-06T07:09:38;17.13;;;7.35;;
18520;SDS011;9390;51.244;6.982;2023-04-06T07:12:11;13.95;;;7.05;;
18520;SDS011;9390;51.244;6.982;2023-04-06T07:14:43;13.43;;;6.75;;
18520;SDS011;9390;51.244;6.982;2023-04-06T07:17:14;12.70;;;6.40;;
18520;SDS011;9390;51.244;6.982;2023-04-06T07:19:46;14.00;;;6.63;;
18520;SDS011;9390;51.244;6.982;2023-04-06T07:22:17;12.02;;;6.45;;
18520;SDS011;9390;51.244;6.982;2023-04-06T07:24:49;14.20;;;7.20;;
18520;SDS011;9390;51.244;6.982;2023-04-06T07:27:22;13.50;;;7.00;;
18520;SDS011;9390;51.244;6.982;2023-04-06T07:29:54;13.05;;;6.20;;
18520;SDS011;9390;51.244;6.982;2023-04-06T07:32:25;12.30;;;6.90;;
18520;SDS011;9390;51.244;6.982;2023-04-06T07:34:57;17.20;;;7.18;;
18520;SDS011;9390;51.244;6.982;2023-04-06T07:37:29;15.40;;;6.78;;
18520;SDS011;9390;51.244;6.982;2023-04-06T07:40:00;13.45;;;7.20;;
18520;SDS011;9390;51.244;6.982;2023-04-06T07:42:33;14.18;;;7.28;;
18520;SDS011;9390;51.244;6.982;2023-04-06T07:45:05;14.63;;;7.15;;
18520;SDS011;9390;51.244;6.982;2023-04-06T07:47:38;13.13;;;6.68;;
18520;SDS011;9390;51.244;6.982;2023-04-06T07:50:10;15.57;;;7.55;;
18520;SDS011;9390;51.244;6.982;2023-04-06T07:52:41;15.82;;;7.57;;
18520;SDS011;9390;51.244;6.982;2023-04-06T07:55:13;17.80;;;7.30;;
18520;SDS011;9390;51.244;6.982;2023-04-06T07:57:46;18.08;;;7.72;;
18520;SDS011;9390;51.244;6.982;2023-04-06T08:00:18;15.95;;;7.82;;
18520;SDS011;9390;51.244;6.982;2023-04-06T08:02:50;16.40;;;7.78;;
18520;SDS011;9390;51.244;6.982;2023-04-06T08:05:22;15.75;;;8.02;;
18520;SDS011;9390;51.244;6.982;2023-04-06T08:07:53;14.68;;;7.88;;
18520;SDS011;9390;51.244;6.982;2023-04-06T08:10:25;18.55;;;7.65;;
18520;SDS011;9390;51.244;6.982;2023-04-06T08:12:58;18.40;;;8.00;;
18520;SDS011;9390;51.244;6.982;2023-04-06T08:15:29;15.82;;;7.95;;
18520;SDS011;9390;51.244;6.982;2023-04-06T08:18:01;14.43;;;8.10;;
18520;SDS011;9390;51.244;6.982;2023-04-06T08:20:32;18.33;;;7.85;;
18520;SDS011;9390;51.244;6.982;2023-04-06T08:23:04;16.58;;;7.93;;
18520;SDS011;9390;51.244;6.982;2023-04-06T08:25:36;19.10;;;8.15;;
18520;SDS011;9390;51.244;6.982;2023-04-06T08:28:09;17.10;;;8.50;;
18520;SDS011;9390;51.244;6.982;2023-04-06T08:30:41;22.45;;;8.32;;
18520;SDS011;9390;51.244;6.982;2023-04-06T08:33:13;16.77;;;8.50;;
18520;SDS011;9390;51.244;6.982;2023-04-06T08:35:44;14.95;;;7.53;;
18520;SDS011;9390;51.244;6.982;2023-04-06T08:38:16;16.58;;;8.02;;
18520;SDS011;9390;51.244;6.982;2023-04-06T08:40:47;18.25;;;7.95;;
18520;SDS011;9390;51.244;6.982;2023-04-06T08:45:53;18.67;;;7.97;;
18520;SDS011;9390;51.244;6.982;2023-04-06T08:48:25;20.70;;;8.98;;
18520;SDS011;9390;51.244;6.982;2023-04-06T08:50:57;20.25;;;8.55;;
18520;SDS011;9390;51.244;6.982;2023-04-06T08:53:28;22.33;;;9.25;;
18520;SDS011;9390;51.244;6.982;2023-04-06T08:56:00;14.93;;;7.97;;
18520;SDS011;9390;51.244;6.982;2023-04-06T08:58:35;20.73;;;8.93;;
18520;SDS011;9390;51.244;6.982;2023-04-06T09:01:08;18.05;;;9.00;;
18520;SDS011;9390;51.244;6.982;2023-04-06T09:06:11;19.50;;;10.10;;
18520;SDS011;9390;51.244;6.982;2023-04-06T09:08:44;18.08;;;9.10;;
18520;SDS011;9390;51.244;6.982;2023-04-06T09:11:16;18.35;;;9.48;;
18520;SDS011;9390;51.244;6.982;2023-04-06T09:13:49;18.10;;;9.35;;
18520;SDS011;9390;51.244;6.982;2023-04-06T09:16:22;18.77;;;9.52;;
18520;SDS011;9390;51.244;6.982;2023-04-06T09:18:54;17.37;;;9.17;;
18520;SDS011;9390;51.244;6.982;2023-04-06T09:21:25;19.77;;;9.77;;
18520;SDS011;9390;51.244;6.982;2023-04-06T09:24:00;17.85;;;9.18;;
18520;SDS011;9390;51.244;6.982;2023-04-06T09:26:32;20.00;;;9.85;;
18520;SDS011;9390;51.244;6.982;2023-04-06T09:29:07;19.23;;;9.88;;
18520;SDS011;9390;51.244;6.982;2023-04-06T09:31:38;19.48;;;9.50;;
18520;SDS011;9390;51.244;6.982;2023-04-06T09:34:19;19.83;;;10.05;;
18520;SDS011;9390;51.244;6.982;2023-04-06T09:36:51;22.17;;;10.63;;
18520;SDS011;9390;51.244;6.982;2023-04-06T09:39:23;23.27;;;10.07;;
18520;SDS011;9390;51.244;6.982;2023-04-06T09:41:55;19.27;;;9.93;;
18520;SDS011;9390;51.244;6.982;2023-04-06T09:44:29;20.45;;;10.43;;
18520;SDS011;9390;51.244;6.982;2023-04-06T09:47:01;20.70;;;10.77;;
18520;SDS011;9390;51.244;6.982;2023-04-06T09:49:37;21.75;;;10.68;;
18520;SDS011;9390;51.244;6.982;2023-04-06T09:52:10;27.17;;;12.32;;
18520;SDS011;9390;51.244;6.982;2023-04-06T09:54:42;25.42;;;11.15;;
18520;SDS011;9390;51.244;6.982;2023-04-06T09:57:20;22.15;;;11.02;;
18520;SDS011;9390;51.244;6.982;2023-04-06T09:59:57;23.15;;;11.30;;
18520;SDS011;9390;51.244;6.982;2023-04-06T10:02:35;24.00;;;11.60;;
18520;SDS011;9390;51.244;6.982;2023-04-06T10:05:13;25.38;;;11.55;;
18520;SDS011;9390;51.244;6.982;2023-04-06T10:07:49;23.55;;;11.55;;
18520;SDS011;9390;51.244;6.982;2023-04-06T10:10:22;23.58;;;11.70;;
18520;SDS011;9390;51.244;6.982;2023-04-06T10:12:53;22.83;;;11.70;;
18520;SDS011;9390;51.244;6.982;2023-04-06T10:15:27;22.13;;;10.93;;
18520;SDS011;9390;51.244;6.982;2023-04-06T10:17:59;22.58;;;11.07;;
18520;SDS011;9390;51.244;6.982;2023-04-06T10:20:33;27.20;;;11.02;;
18520;SDS011;9390;51.244;6.982;2023-04-06T10:23:10;24.15;;;10.88;;
18520;SDS011;9390;51.244;6.982;2023-04-06T10:25:51;25.25;;;11.32;;
18520;SDS011;9390;51.244;6.982;2023-04-06T10:28:23;21.13;;;10.80;;
18520;SDS011;9390;51.244;6.982;2023-04-06T10:31:00;21.23;;;10.27;;
18520;SDS011;9390;51.244;6.982;2023-04-06T10:33:33;19.50;;;9.95;;
18520;SDS011;9390;51.244;6.982;2023-04-06T10:36:11;21.23;;;11.23;;
18520;SDS011;9390;51.244;6.982;2023-04-06T10:38:43;22.25;;;11.70;;
18520;SDS011;9390;51.244;6.982;2023-04-06T10:41:16;22.85;;;11.15;;
18520;SDS011;9390;51.244;6.982;2023-04-06T10:43:54;24.17;;;11.77;;
18520;SDS011;9390;51.244;6.982;2023-04-06T10:46:28;25.58;;;11.27;;
18520;SDS011;9390;51.244;6.982;2023-04-06T10:49:09;23.38;;;10.88;;
18520;SDS011;9390;51.244;6.982;2023-04-06T10:51:41;23.92;;;11.93;;
18520;SDS011;9390;51.244;6.982;2023-04-06T10:54:13;22.98;;;10.80;;
18520;SDS011;9390;51.244;6.982;2023-04-06T10:56:45;20.83;;;11.25;;
18520;SDS011;9390;51.244;6.982;2023-04-06T10:59:18;20.35;;;11.07;;
18520;SDS011;9390;51.244;6.982;2023-04-06T11:01:51;23.92;;;11.73;;
18520;SDS011;9390;51.244;6.982;2023-04-06T11:04:25;22.73;;;11.15;;
18520;SDS011;9390;51.244;6.982;2023-04-06T11:06:56;23.33;;;11.00;;
18520;SDS011;9390;51.244;6.982;2023-04-06T11:09:29;24.98;;;11.95;;
18520;SDS011;9390;51.244;6.982;2023-04-06T11:12:01;25.27;;;11.73;;
18520;SDS011;9390;51.244;6.982;2023-04-06T11:14:32;23.27;;;11.35;;
18520;SDS011;9390;51.244;6.982;2023-04-06T11:17:05;30.42;;;12.13;;
18520;SDS011;9390;51.244;6.982;2023-04-06T11:22:08;25.08;;;11.25;;
18520;SDS011;9390;51.244;6.982;2023-04-06T11:24:40;24.98;;;12.07;;
18520;SDS011;9390;51.244;6.982;2023-04-06T11:27:11;27.15;;;11.82;;
18520;SDS011;9390;51.244;6.982;2023-04-06T11:29:45;30.38;;;13.25;;
18520;SDS011;9390;51.244;6.982;2023-04-06T11:32:21;25.75;;;13.23;;
18520;SDS011;9390;51.244;6.982;2023-04-06T11:34:53;24.33;;;12.48;;
18520;SDS011;9390;51.244;6.982;2023-04-06T11:37:26;26.35;;;13.32;;
18520;SDS011;9390;51.244;6.982;2023-04-06T11:39:57;25.80;;;12.75;;
18520;SDS011;9390;51.244;6.982;2023-04-06T11:42:29;25.85;;;12.68;;
18520;SDS011;9390;51.244;6.982;2023-04-06T11:45:01;27.67;;;13.35;;
18520;SDS011;9390;51.244;6.982;2023-04-06T11:47:34;27.15;;;12.00;;
18520;SDS011;9390;51.244;6.982;2023-04-06T11:50:07;24.58;;;12.57;;
18520;SDS011;9390;51.244;6.982;2023-04-06T11:52:42;28.70;;;13.57;;
18520;SDS011;9390;51.244;6.982;2023-04-06T11:55:14;29.63;;;13.75;;
18520;SDS011;9390;51.244;6.982;2023-04-06T11:57:47;27.02;;;13.10;;
18520;SDS011;9390;51.244;6.982;2023-04-06T12:00:20;28.42;;;14.25;;
18520;SDS011;9390;51.244;6.982;2023-04-06T12:02:53;26.42;;;13.52;;
18520;SDS011;9390;51.244;6.982;2023-04-06T12:05:24;24.83;;;13.02;;
18520;SDS011;9390;51.244;6.982;2023-04-06T12:07:55;25.80;;;12.57;;
18520;SDS011;9390;51.244;6.982;2023-04-06T12:10:27;26.05;;;13.70;;
18520;SDS011;9390;51.244;6.982;2023-04-06T12:12:59;26.52;;;12.98;;
18520;SDS011;9390;51.244;6.982;2023-04-06T12:15:30;26.80;;;12.15;;
18520;SDS011;9390;51.244;6.982;2023-04-06T12:18:03;24.13;;;11.88;;
18520;SDS011;9390;51.244;6.982;2023-04-06T12:23:06;24.95;;;12.48;;
18520;SDS011;9390;51.244;6.982;2023-04-06T12:25:38;23.88;;;12.05;;
18520;SDS011;9390;51.244;6.982;2023-04-06T12:28:10;26.83;;;13.60;;
18520;SDS011;9390;51.244;6.982;2023-04-06T12:30:42;28.00;;;13.18;;
18520;SDS011;9390;51.244;6.982;2023-04-06T12:33:15;25.77;;;12.75;;
18520;SDS011;9390;51.244;6.982;2023-04-06T12:35:47;23.35;;;12.43;;
18520;SDS011;9390;51.244;6.982;2023-04-06T12:38:18;29.98;;;12.65;;
18520;SDS011;9390;51.244;6.982;2023-04-06T12:40:50;27.00;;;12.65;;
18520;SDS011;9390;51.244;6.982;2023-04-06T12:43:21;27.83;;;13.10;;
18520;SDS011;9390;51.244;6.982;2023-04-06T12:45:54;25.52;;;13.20;;
18520;SDS011;9390;51.244;6.982;2023-04-06T12:48:27;26.98;;;13.55;;
18520;SDS011;9390;51.244;6.982;2023-04-06T12:51:02;25.90;;;12.20;;
18520;SDS011;9390;51.244;6.982;2023-04-06T12:53:34;28.27;;;13.20;;
18520;SDS011;9390;51.244;6.982;2023-04-06T12:56:11;23.23;;;11.95;;
18520;SDS011;9390;51.244;6.982;2023-04-06T12:58:45;26.10;;;12.77;;
18520;SDS011;9390;51.244;6.982;2023-04-06T13:01:17;26.50;;;13.07;;
18520;SDS011;9390;51.244;6.982;2023-04-06T13:03:49;29.30;;;12.63;;
18520;SDS011;9390;51.244;6.982;2023-04-06T13:06:21;31.63;;;12.65;;
18520;SDS011;9390;51.244;6.982;2023-04-06T13:08:52;25.35;;;12.05;;
18520;SDS011;9390;51.244;6.982;2023-04-06T13:11:25;26.65;;;13.10;;
18520;SDS011;9390;51.244;6.982;2023-04-06T13:13:56;27.15;;;12.32;;
18520;SDS011;9390;51.244;6.982;2023-04-06T13:16:28;21.73;;;11.43;;
18520;SDS011;9390;51.244;6.982;2023-04-06T13:19:00;23.00;;;11.93;;
18520;SDS011;9390;51.244;6.982;2023-04-06T13:21:32;26.55;;;11.15;;
18520;SDS011;9390;51.244;6.982;2023-04-06T13:24:04;23.60;;;10.70;;
18520;SDS011;9390;51.244;6.982;2023-04-06T13:26:35;20.55;;;10.70;;
18520;SDS011;9390;51.244;6.982;2023-04-06T13:29:07;24.00;;;10.40;;
18520;SDS011;9390;51.244;6.982;2023-04-06T13:31:39;20.17;;;10.35;;
18520;SDS011;9390;51.244;6.982;2023-04-06T13:34:13;19.70;;;10.18;;
18520;SDS011;9390;51.244;6.982;2023-04-06T13:36:45;23.10;;;10.60;;
18520;SDS011;9390;51.244;6.982;2023-04-06T13:39:16;24.70;;;10.18;;
18520;SDS011;9390;51.244;6.982;2023-04-06T13:41:48;22.20;;;10.43;;
18520;SDS011;9390;51.244;6.982;2023-04-06T13:44:19;16.58;;;9.20;;
18520;SDS011;9390;51.244;6.982;2023-04-06T13:46:51;21.42;;;10.18;;
18520;SDS011;9390;51.244;6.982;2023-04-06T13:49:24;18.73;;;9.07;;
18520;SDS011;9390;51.244;6.982;2023-04-06T13:54:27;23.88;;;9.85;;
18520;SDS011;9390;51.244;6.982;2023-04-06T13:56:59;22.35;;;8.40;;
18520;SDS011;9390;51.244;6.982;2023-04-06T13:59:34;17.75;;;8.13;;
18520;SDS011;9390;51.244;6.982;2023-04-06T14:02:06;14.43;;;6.88;;
18520;SDS011;9390;51.244;6.982;2023-04-06T14:04:40;16.08;;;7.95;;
18520;SDS011;9390;51.244;6.982;2023-04-06T14:07:11;18.23;;;8.30;;
18520;SDS011;9390;51.244;6.982;2023-04-06T14:09:43;16.75;;;7.47;;
18520;SDS011;9390;51.244;6.982;2023-04-06T14:12:14;15.02;;;7.28;;
18520;SDS011;9390;51.244;6.982;2023-04-06T14:14:46;16.23;;;7.72;;
18520;SDS011;9390;51.244;6.982;2023-04-06T14:17:17;15.95;;;7.35;;
18520;SDS011;9390;51.244;6.982;2023-04-06T14:19:50;13.65;;;7.38;;
18520;SDS011;9390;51.244;6.982;2023-04-06T14:22:22;15.10;;;7.22;;
18520;SDS011;9390;51.244;6.982;2023-04-06T14:24:54;13.68;;;7.07;;
18520;SDS011;9390;51.244;6.982;2023-04-06T14:27:25;14.88;;;7.30;;
18520;SDS011;9390;51.244;6.982;2023-04-06T14:29:57;14.02;;;7.07;;
18520;SDS011;9390;51.244;6.982;2023-04-06T14:32:28;13.98;;;7.13;;
18520;SDS011;9390;51.244;6.982;2023-04-06T14:35:01;13.70;;;6.47;;
18520;SDS011;9390;51.244;6.982;2023-04-06T14:37:33;16.23;;;7.20;;
18520;SDS011;9390;51.244;6.982;2023-04-06T14:40:05;14.10;;;6.95;;
18520;SDS011;9390;51.244;6.982;2023-04-06T14:42:37;16.83;;;6.85;;
18520;SDS011;9390;51.244;6.982;2023-04-06T14:45:09;18.65;;;7.72;;
18520;SDS011;9390;51.244;6.982;2023-04-06T14:47:40;16.67;;;7.33;;
18520;SDS011;9390;51.244;6.982;2023-04-06T14:50:14;15.85;;;7.68;;
18520;SDS011;9390;51.244;6.982;2023-04-06T14:52:45;15.95;;;8.10;;
18520;SDS011;9390;51.244;6.982;2023-04-06T14:55:17;15.85;;;7.72;;
18520;SDS011;9390;51.244;6.982;2023-04-06T14:57:48;20.17;;;7.82;;
18520;SDS011;9390;51.244;6.982;2023-04-06T15:00:20;15.80;;;7.95;;
18520;SDS011;9390;51.244;6.982;2023-04-06T15:02:51;17.10;;;8.55;;
18520;SDS011;9390;51.244;6.982;2023-04-06T15:05:24;18.50;;;8.43;;
18520;SDS011;9390;51.244;6.982;2023-04-06T15:10:27;13.48;;;6.75;;
18520;SDS011;9390;51.244;6.982;2023-04-06T15:12:58;14.27;;;6.97;;
18520;SDS011;9390;51.244;6.982;2023-04-06T15:15:30;13.20;;;6.05;;
18520;SDS011;9390;51.244;6.982;2023-04-06T15:18:01;14.27;;;6.85;;
18520;SDS011;9390;51.244;6.982;2023-04-06T15:20:34;14.25;;;6.75;;
18520;SDS011;9390;51.244;6.982;2023-04-06T15:23:05;14.48;;;7.20;;
18520;SDS011;9390;51.244;6.982;2023-04-06T15:25:37;16.40;;;7.65;;
18520;SDS011;9390;51.244;6.982;2023-04-06T15:28:11;16.05;;;7.20;;
18520;SDS011;9390;51.244;6.982;2023-04-06T15:30:42;17.77;;;7.30;;